Time;durP1;ratioP1;P1;durP2;ratioP2;P2;SDS_P1;SDS_P2;PMS_P1;PMS_P2;Temp;Humidity;BMP_temperature;BMP_pressure;BME280_temperature;BME280_humidity;BME280_pressure;Samples;Min_cycle;Max_cycle;Signal;HPM_P1;HPM_P2
2022/10/15 00:00:36;;;;;;;1.15;0.60;;;11.50;99.90;;;;;;6276798;22;20039;-87
2022/10/15 00:03:02;;;;;;;3.90;1.45;;;11.50;99.90;;;;;;6249834;22;20020;-87
2022/10/15 00:05:27;;;;;;;1.43;1.07;;;11.50;99.90;;;;;;6248939;22;20043;-87
2022/10/15 00:07:53;;;;;;;3.87;1.37;;;11.50;99.90;;;;;;6245937;22;20020;-87
2022/10/15 00:10:19;;;;;;;1.27;0.90;;;11.50;99.90;;;;;;6223880;22;20026;-87
2022/10/15 00:12:46;;;;;;;1.92;0.65;;;11.50;99.90;;;;;;6218382;22;20015;-87
2022/10/15 00:15:12;;;;;;;1.73;1.35;;;11.50;99.90;;;;;;6248872;22;20016;-87
2022/10/15 00:17:38;;;;;;;2.20;1.13;;;11.50;99.90;;;;;;6276597;22;20019;-87
2022/10/15 00:20:07;;;;;;;1.33;1.05;;;11.50;99.90;;;;;;6249758;22;20014;-87
2022/10/15 00:22:33;;;;;;;0.82;0.82;;;11.50;99.90;;;;;;6275888;22;20024;-87
2022/10/15 00:24:59;;;;;;;3.70;1.53;;;11.50;99.90;;;;;;6247246;22;20018;-86
2022/10/15 00:27:25;;;;;;;2.40;1.50;;;11.50;99.90;;;;;;6248877;22;20055;-87
2022/10/15 00:29:50;;;;;;;0.90;0.90;;;11.40;99.90;;;;;;6249547;22;20024;-87
2022/10/15 00:32:16;;;;;;;2.30;1.20;;;11.40;99.90;;;;;;6223612;22;20024;-87
2022/10/15 00:34:42;;;;;;;3.85;1.10;;;11.40;99.90;;;;;;6268927;22;20019;-87
2022/10/15 00:37:08;;;;;;;1.27;0.80;;;11.40;99.90;;;;;;6248544;22;20015;-87
2022/10/15 00:39:34;;;;;;;3.30;1.33;;;11.40;99.90;;;;;;6235834;23;20040;-87
2022/10/15 00:42:00;;;;;;;0.95;0.77;;;11.40;99.90;;;;;;6223571;22;20015;-87
2022/10/15 00:44:29;;;;;;;2.73;1.43;;;11.40;99.90;;;;;;6248668;22;20062;-87
2022/10/15 00:47:12;;;;;;;1.33;1.02;;;11.40;99.90;;;;;;6249293;22;20252;-87
2022/10/15 00:50:01;;;;;;;2.20;1.10;;;11.30;99.90;;;;;;6223660;22;20394;-87
2022/10/15 00:53:15;;;;;;;3.25;1.23;;;11.30;99.90;;;;;;6223543;22;20023;-87
2022/10/15 00:55:42;;;;;;;2.00;0.95;;;11.30;99.90;;;;;;6230299;23;20346;-87
2022/10/15 00:58:09;;;;;;;;;;;11.30;99.90;;;;;;6273595;22;20440;-87
2022/10/15 01:00:35;;;;;;;2.90;0.80;;;11.30;99.90;;;;;;6248852;22;19961;-87
2022/10/15 01:03:01;;;;;;;1.00;0.73;;;11.30;99.90;;;;;;6220329;22;20024;-87
2022/10/15 01:05:27;;;;;;;0.90;0.87;;;11.30;99.90;;;;;;6234284;23;20020;-87
2022/10/15 01:07:53;;;;;;;1.88;1.77;;;11.30;99.90;;;;;;6220019;22;20318;-87
2022/10/15 01:10:20;;;;;;;2.37;0.93;;;11.30;99.90;;;;;;6223419;22;20073;-87
2022/10/15 01:13:00;;;;;;;1.90;1.00;;;11.30;99.90;;;;;;6274644;22;20102;-87
2022/10/15 01:15:47;;;;;;;1.17;0.70;;;11.20;99.90;;;;;;6248239;22;20019;-87
2022/10/15 01:18:25;;;;;;;2.10;1.27;;;11.30;99.90;;;;;;6249284;22;20011;-87
2022/10/15 01:21:04;;;;;;;1.90;0.77;;;11.30;99.90;;;;;;6249185;22;20020;-87
2022/10/15 01:23:32;;;;;;;2.70;1.08;;;11.20;99.90;;;;;;6223213;22;20321;-87
2022/10/15 01:26:04;;;;;;;2.63;1.00;;;11.30;99.90;;;;;;6223616;22;20333;-87
2022/10/15 01:28:35;;;;;;;1.38;1.00;;;11.30;99.90;;;;;;6223325;22;20027;-87
2022/10/15 01:31:28;;;;;;;3.63;1.17;;;11.30;99.90;;;;;;6248935;22;20016;-87
2022/10/15 01:34:02;;;;;;;1.75;0.80;;;11.30;99.90;;;;;;6223643;22;20057;-87
2022/10/15 01:36:38;;;;;;;1.77;1.10;;;11.30;99.90;;;;;;6248316;22;20016;-86
2022/10/15 01:39:26;;;;;;;1.40;0.88;;;11.30;99.90;;;;;;6249226;22;20016;-87
2022/10/15 01:41:57;;;;;;;2.38;1.55;;;11.20;99.90;;;;;;6249205;22;20016;-87
2022/10/15 01:44:30;;;;;;;2.85;1.92;;;11.30;99.90;;;;;;6275649;22;20016;-87
2022/10/15 01:47:13;;;;;;;0.93;0.70;;;11.30;99.90;;;;;;6249090;22;20065;-87
2022/10/15 01:49:42;;;;;;;2.50;0.88;;;11.30;99.90;;;;;;6248597;22;20456;-87
2022/10/15 01:52:22;;;;;;;2.13;1.10;;;11.30;99.90;;;;;;6223842;22;20474;-87
2022/10/15 01:54:51;;;;;;;2.38;1.35;;;11.20;99.90;;;;;;6248197;22;20016;-87
2022/10/15 01:57:19;;;;;;;1.75;0.85;;;11.20;99.90;;;;;;6248804;22;20046;-87
2022/10/15 01:59:44;;;;;;;3.30;1.05;;;11.50;99.90;;;;;;6248403;22;20026;-86
2022/10/15 02:02:10;;;;;;;5.70;1.40;;;11.30;99.90;;;;;;6223663;22;20020;-87
2022/10/15 02:04:36;;;;;;;2.23;1.53;;;11.30;99.90;;;;;;6217989;23;20082;-87
2022/10/15 02:07:07;;;;;;;3.43;1.73;;;11.30;99.90;;;;;;6245016;23;20020;-87
2022/10/15 02:09:33;;;;;;;1.10;0.93;;;11.50;99.90;;;;;;6215156;22;20018;-87
2022/10/15 02:12:23;;;;;;;1.17;0.77;;;11.30;99.90;;;;;;6249015;22;20051;-87
2022/10/15 02:15:06;;;;;;;1.20;0.70;;;11.30;99.90;;;;;;6248319;22;20027;-87
2022/10/15 02:18:01;;;;;;;0.98;0.90;;;11.20;99.90;;;;;;6249040;22;20016;-86
2022/10/15 02:20:55;;;;;;;3.10;1.00;;;11.30;99.90;;;;;;6225405;22;20046;-87
2022/10/15 02:23:57;;;;;;;2.13;1.50;;;11.20;99.90;;;;;;6250973;22;20015;-87
2022/10/15 02:26:26;;;;;;;2.17;1.02;;;11.20;99.90;;;;;;6250641;22;20019;-87
2022/10/15 02:28:56;;;;;;;1.42;1.08;;;11.20;99.90;;;;;;6250147;22;20019;-87
2022/10/15 02:31:24;;;;;;;2.33;1.55;;;11.20;99.90;;;;;;6277706;22;20020;-87
2022/10/15 02:33:54;;;;;;;2.35;1.08;;;11.20;99.90;;;;;;6250091;22;20340;-87
2022/10/15 02:36:20;;;;;;;1.77;1.17;;;12.10;99.90;;;;;;6249953;22;20016;-86
2022/10/15 02:38:47;;;;;;;1.90;1.00;;;11.20;99.90;;;;;;6250184;22;20086;-87
2022/10/15 02:41:15;;;;;;;1.35;0.80;;;11.20;99.90;;;;;;6225638;22;20078;-87
2022/10/15 02:43:41;;;;;;;1.27;0.90;;;11.20;99.90;;;;;;6249903;22;20375;-87
2022/10/15 02:46:10;;;;;;;2.20;1.43;;;11.20;99.90;;;;;;6250356;22;20101;-87
2022/10/15 02:48:35;;;;;;;2.03;0.85;;;11.20;99.90;;;;;;6249922;22;20105;-87
2022/10/15 02:51:01;;;;;;;4.70;1.30;;;11.20;99.90;;;;;;6248580;22;20020;-87
2022/10/15 02:53:27;;;;;;;1.50;0.90;;;11.20;99.90;;;;;;6225008;22;20408;-87
2022/10/15 02:55:52;;;;;;;0.80;0.80;;;11.20;99.90;;;;;;6245966;22;20042;-87
2022/10/15 02:58:18;;;;;;;2.13;1.43;;;11.20;99.90;;;;;;6239588;22;20041;-86
2022/10/15 03:00:44;;;;;;;1.43;0.97;;;11.10;99.90;;;;;;6194124;22;20022;-87
2022/10/15 03:03:10;;;;;;;1.57;1.00;;;11.20;99.90;;;;;;6207370;23;20078;-87
2022/10/15 03:05:35;;;;;;;1.17;0.80;;;11.10;99.90;;;;;;6242493;22;20057;-87
2022/10/15 03:08:01;;;;;;;4.53;1.70;;;11.20;99.90;;;;;;6222695;22;20022;-87
2022/10/15 03:10:27;;;;;;;2.57;0.93;;;11.20;99.90;;;;;;6224933;22;20022;-86
2022/10/15 03:12:52;;;;;;;3.10;1.03;;;11.20;99.90;;;;;;6224642;22;20018;-87
2022/10/15 03:15:18;;;;;;;1.97;0.80;;;11.10;99.90;;;;;;6239455;22;20039;-87
2022/10/15 03:17:44;;;;;;;1.27;1.13;;;11.10;99.90;;;;;;6198963;22;20019;-87
2022/10/15 03:20:09;;;;;;;2.83;1.00;;;11.10;99.90;;;;;;6219648;23;20091;-87
2022/10/15 03:22:35;;;;;;;2.43;1.03;;;11.10;99.90;;;;;;6245060;23;20027;-87
2022/10/15 03:25:01;;;;;;;0.93;0.70;;;12.00;99.90;;;;;;6247326;22;20019;-87
2022/10/15 03:27:27;;;;;;;1.15;0.68;;;11.10;99.90;;;;;;6240605;22;20023;-87
2022/10/15 03:29:52;;;;;;;1.97;0.80;;;11.10;99.90;;;;;;6223809;22;20015;-87
2022/10/15 03:32:18;;;;;;;1.70;1.00;;;11.10;99.90;;;;;;6249996;22;20015;-87
2022/10/15 03:34:44;;;;;;;3.40;1.53;;;11.10;99.90;;;;;;6224404;22;20015;-87
2022/10/15 03:37:09;;;;;;;2.73;0.93;;;11.10;99.90;;;;;;6223860;22;20016;-87
2022/10/15 03:39:35;;;;;;;2.07;0.63;;;11.10;99.90;;;;;;6224614;22;20020;-87
2022/10/15 03:42:01;;;;;;;3.45;1.17;;;11.10;99.90;;;;;;6247476;22;20090;-87
2022/10/15 03:44:27;;;;;;;2.03;1.03;;;11.10;99.90;;;;;;6276798;22;20066;-86
2022/10/15 03:46:52;;;;;;;2.13;1.33;;;11.10;99.90;;;;;;6223781;22;20027;-87
2022/10/15 03:49:18;;;;;;;1.53;1.17;;;11.10;99.90;;;;;;6208657;23;20024;-87
2022/10/15 03:51:44;;;;;;;1.30;0.57;;;11.10;99.90;;;;;;6249323;22;20015;-87
2022/10/15 03:54:09;;;;;;;1.43;0.60;;;11.10;99.90;;;;;;6249542;22;20382;-86
2022/10/15 03:56:35;;;;;;;1.93;1.03;;;11.10;99.90;;;;;;6237449;23;20074;-87
2022/10/15 03:59:01;;;;;;;1.43;0.57;;;11.10;99.90;;;;;;6272900;22;20023;-87
2022/10/15 04:01:26;;;;;;;3.27;1.10;;;11.00;99.90;;;;;;6249675;22;20020;-87
2022/10/15 04:03:52;;;;;;;2.73;1.40;;;11.10;99.90;;;;;;6248721;22;20022;-87
2022/10/15 04:06:18;;;;;;;2.53;0.73;;;11.00;99.90;;;;;;6238783;22;20086;-87
2022/10/15 04:08:44;;;;;;;1.05;0.65;;;11.00;99.90;;;;;;6249197;22;20445;-87
2022/10/15 04:11:10;;;;;;;2.13;0.80;;;11.00;99.90;;;;;;6199265;22;20094;-87
2022/10/15 04:13:35;;;;;;;1.33;0.77;;;11.00;99.90;;;;;;6223898;22;20016;-86
2022/10/15 04:16:04;;;;;;;2.23;0.90;;;11.00;99.90;;;;;;6248771;22;20027;-87
2022/10/15 04:18:30;;;;;;;1.13;0.80;;;11.00;99.90;;;;;;6223909;22;20478;-87
2022/10/15 04:20:59;;;;;;;1.67;0.82;;;11.00;99.90;;;;;;6246187;22;20011;-87
2022/10/15 04:23:25;;;;;;;1.92;0.93;;;11.00;99.90;;;;;;6224697;22;20069;-87
2022/10/15 04:25:58;;;;;;;1.70;0.95;;;11.00;99.90;;;;;;6223537;22;20083;-87
2022/10/15 04:28:24;;;;;;;1.30;1.20;;;11.00;99.90;;;;;;6249626;22;20016;-87
2022/10/15 04:30:49;;;;;;;2.77;1.30;;;11.00;99.90;;;;;;6248838;22;20373;-87
2022/10/15 04:33:15;;;;;;;4.13;1.40;;;11.00;99.90;;;;;;6238242;22;20020;-85
2022/10/15 04:35:41;;;;;;;2.83;1.73;;;10.90;99.90;;;;;;6249489;22;20337;-86
2022/10/15 04:38:06;;;;;;;2.13;0.70;;;10.90;99.90;;;;;;6197047;22;20059;-87
2022/10/15 04:40:32;;;;;;;1.80;1.20;;;10.90;99.90;;;;;;6249203;22;20065;-86
2022/10/15 04:42:58;;;;;;;0.60;0.60;;;10.90;99.90;;;;;;6218617;22;20029;-87
2022/10/15 04:45:23;;;;;;;1.03;0.93;;;10.90;99.90;;;;;;6199014;22;20087;-87
2022/10/15 04:47:49;;;;;;;2.87;1.40;;;10.90;99.90;;;;;;6219377;22;20098;-87
2022/10/15 04:50:15;;;;;;;3.23;1.63;;;10.80;99.90;;;;;;6224215;22;20012;-87
2022/10/15 04:52:40;;;;;;;1.17;1.07;;;10.80;99.90;;;;;;6249221;22;20095;-87
2022/10/15 04:55:06;;;;;;;1.03;0.93;;;10.90;99.90;;;;;;6273362;22;20423;-87
2022/10/15 04:57:32;;;;;;;1.23;0.82;;;10.80;99.90;;;;;;6241335;22;20344;-87
2022/10/15 04:59:58;;;;;;;4.37;1.50;;;10.80;99.90;;;;;;6248688;22;20069;-87
2022/10/15 05:02:23;;;;;;;1.60;0.93;;;10.80;99.90;;;;;;6224102;22;20015;-86
2022/10/15 05:04:49;;;;;;;4.30;1.20;;;10.80;99.90;;;;;;6248793;22;20023;-87
2022/10/15 05:07:15;;;;;;;2.22;1.15;;;10.80;99.90;;;;;;6237754;22;20047;-86
2022/10/15 05:09:41;;;;;;;2.63;1.00;;;10.80;99.90;;;;;;6237858;23;20024;-87
2022/10/15 05:12:06;;;;;;;2.37;1.40;;;10.80;99.90;;;;;;6247665;22;20028;-86
2022/10/15 05:14:34;;;;;;;2.40;1.40;;;10.80;99.90;;;;;;6248711;22;20487;-87
2022/10/15 05:17:00;;;;;;;1.30;1.02;;;10.80;99.90;;;;;;6219225;22;20047;-87
2022/10/15 05:19:25;;;;;;;0.93;0.93;;;10.80;99.90;;;;;;6248954;22;20023;-87
2022/10/15 05:21:51;;;;;;;1.97;0.83;;;10.80;99.90;;;;;;6223844;22;20020;-87
2022/10/15 05:24:17;;;;;;;2.22;1.25;;;10.80;99.90;;;;;;6248844;22;20015;-87
2022/10/15 05:26:43;;;;;;;1.87;0.80;;;10.80;99.90;;;;;;6249181;22;20015;-87
2022/10/15 05:29:08;;;;;;;3.53;1.67;;;10.80;99.90;;;;;;6198143;22;20019;-87
2022/10/15 05:31:34;;;;;;;1.63;0.60;;;10.80;99.90;;;;;;6222870;22;20018;-87
2022/10/15 05:34:06;;;;;;;2.70;1.17;;;10.80;99.90;;;;;;6248590;22;20015;-87
2022/10/15 05:36:31;;;;;;;4.25;1.58;;;10.80;99.90;;;;;;6223539;22;20340;-86
2022/10/15 05:39:00;;;;;;;2.13;1.20;;;10.90;99.90;;;;;;6275649;22;20012;-87
2022/10/15 05:41:27;;;;;;;1.52;1.13;;;10.80;99.90;;;;;;6223800;22;20024;-86
2022/10/15 05:43:55;;;;;;;3.85;1.52;;;10.80;99.90;;;;;;6248877;22;20012;-87
2022/10/15 05:46:21;;;;;;;1.00;0.65;;;10.80;99.90;;;;;;6263519;22;20022;-87
2022/10/15 05:48:48;;;;;;;1.77;1.65;;;10.80;99.90;;;;;;6274632;22;20390;-87
2022/10/15 05:51:15;;;;;;;3.38;1.13;;;10.80;99.90;;;;;;6248561;22;20016;-86
2022/10/15 05:53:42;;;;;;;3.15;1.35;;;10.80;99.90;;;;;;6225432;22;20019;-86
2022/10/15 05:56:08;;;;;;;3.17;1.23;;;10.80;99.90;;;;;;6250400;22;20016;-87
2022/10/15 05:58:38;;;;;;;2.20;1.00;;;10.80;99.90;;;;;;6269007;22;20078;-87
2022/10/15 06:01:07;;;;;;;2.03;0.80;;;11.10;99.90;;;;;;6250279;22;20023;-87
2022/10/15 06:03:34;;;;;;;1.63;1.13;;;10.80;99.90;;;;;;6225601;22;20018;-87
2022/10/15 06:05:59;;;;;;;;;;;10.80;99.90;;;;;;6277870;22;20027;-87
2022/10/15 06:08:29;;;;;;;2.00;1.10;;;10.80;99.90;;;;;;6220259;23;19915;-86
2022/10/15 06:10:55;;;;;;;3.72;1.20;;;10.80;99.90;;;;;;6244211;22;20016;-87
2022/10/15 06:13:21;;;;;;;2.25;1.45;;;10.80;99.90;;;;;;6250332;22;20391;-87
2022/10/15 06:15:47;;;;;;;1.63;0.75;;;10.80;99.90;;;;;;6250919;22;20027;-86
2022/10/15 06:18:15;;;;;;;1.43;0.80;;;10.80;99.90;;;;;;6249871;22;20348;-86
2022/10/15 06:20:49;;;;;;;3.63;1.67;;;10.80;99.90;;;;;;6225510;22;20020;-87
2022/10/15 06:23:15;;;;;;;5.97;1.48;;;10.80;99.90;;;;;;6250287;22;20390;-86
2022/10/15 06:25:41;;;;;;;4.00;1.30;;;10.80;99.90;;;;;;6225464;22;20090;-86
2022/10/15 06:28:08;;;;;;;3.00;1.60;;;10.80;99.90;;;;;;6249022;22;20027;-87
2022/10/15 06:30:34;;;;;;;2.28;1.25;;;10.90;99.90;;;;;;6201040;22;20522;-86
2022/10/15 06:33:00;;;;;;;2.27;1.03;;;10.90;99.90;;;;;;6225084;22;20020;-86
2022/10/15 06:35:29;;;;;;;1.33;1.23;;;10.90;99.90;;;;;;6241773;22;20098;-87
2022/10/15 06:37:55;;;;;;;2.25;1.10;;;10.90;99.90;;;;;;6250302;22;20019;-86
2022/10/15 06:40:24;;;;;;;2.38;1.00;;;10.90;99.90;;;;;;6224659;22;20287;-87
2022/10/15 06:42:52;;;;;;;2.13;1.70;;;10.90;99.90;;;;;;6250415;22;20069;-87
2022/10/15 06:45:18;;;;;;;2.97;1.25;;;10.90;99.90;;;;;;6224503;22;20348;-86
2022/10/15 06:47:44;;;;;;;1.93;1.50;;;10.90;99.90;;;;;;6219402;22;20015;-87
2022/10/15 06:50:11;;;;;;;2.30;1.70;;;11.10;99.90;;;;;;6227009;22;20462;-86
2022/10/15 06:52:37;;;;;;;2.53;1.48;;;11.00;99.90;;;;;;6225159;22;20077;-87
2022/10/15 06:55:03;;;;;;;0.80;0.53;;;11.00;99.90;;;;;;6223471;22;20011;-85
2022/10/15 06:57:29;;;;;;;;;;;11.00;99.90;;;;;;6250979;22;20387;-86
2022/10/15 06:59:55;;;;;;;1.05;0.70;;;11.10;99.90;;;;;;6250101;22;19915;-86
2022/10/15 07:02:22;;;;;;;0.65;0.65;;;11.10;99.90;;;;;;6249544;22;20119;-87
2022/10/15 07:04:47;;;;;;;2.25;1.02;;;11.10;99.90;;;;;;6245388;22;20090;-87
2022/10/15 07:07:16;;;;;;;1.40;1.30;;;11.10;99.90;;;;;;6232853;23;20491;-87
2022/10/15 07:09:42;;;;;;;1.73;1.00;;;11.20;99.90;;;;;;6245156;23;20016;-86
2022/10/15 07:12:08;;;;;;;2.60;1.07;;;11.10;99.90;;;;;;6248834;22;20016;-87
2022/10/15 07:14:33;;;;;;;2.43;2.00;;;11.20;99.90;;;;;;6249740;22;20373;-86
2022/10/15 07:16:59;;;;;;;1.90;0.80;;;11.80;99.90;;;;;;6250233;22;20475;-86
2022/10/15 07:19:27;;;;;;;3.50;0.93;;;11.30;99.90;;;;;;6214875;22;20094;-87
2022/10/15 07:21:52;;;;;;;2.53;1.15;;;11.40;99.90;;;;;;6224845;22;20436;-86
2022/10/15 07:24:18;;;;;;;2.20;1.13;;;11.60;99.90;;;;;;6249543;22;20016;-87
2022/10/15 07:26:46;;;;;;;1.93;0.70;;;11.90;99.90;;;;;;6249540;22;20018;-87
2022/10/15 07:29:12;;;;;;;0.85;0.82;;;11.90;99.90;;;;;;6249297;22;20023;-87
2022/10/15 07:31:37;;;;;;;1.63;1.10;;;11.90;99.90;;;;;;6224596;22;20016;-86
2022/10/15 07:34:04;;;;;;;2.80;1.20;;;11.80;99.90;;;;;;6224681;22;20161;-87
2022/10/15 07:36:30;;;;;;;2.15;1.48;;;11.80;99.90;;;;;;6240540;22;20024;-87
2022/10/15 07:39:10;;;;;;;1.70;0.88;;;11.80;99.90;;;;;;5146554;27;20181;-86
2022/10/15 07:41:41;;;;;;;1.35;0.80;;;11.80;99.90;;;;;;5130322;28;20400;-86
2022/10/15 07:44:06;;;;;;;4.45;1.35;;;11.80;99.90;;;;;;5130347;28;20086;-85
2022/10/15 07:46:32;;;;;;;1.87;0.87;;;11.90;99.90;;;;;;5112796;28;20047;-85
2022/10/15 07:48:58;;;;;;;1.52;0.85;;;11.80;99.90;;;;;;5113018;28;20132;-86
2022/10/15 07:51:24;;;;;;;2.37;1.03;;;12.00;99.90;;;;;;5129694;28;20130;-86
2022/10/15 07:53:49;;;;;;;1.93;0.60;;;12.10;99.90;;;;;;5096051;28;20051;-86
2022/10/15 07:56:15;;;;;;;1.67;0.90;;;12.10;99.90;;;;;;5112510;28;20138;-86
2022/10/15 07:58:42;;;;;;;1.17;0.65;;;12.10;99.90;;;;;;5129415;28;20050;-86
2022/10/15 08:01:09;;;;;;;2.35;1.63;;;12.20;99.90;;;;;;5112460;27;20043;-86
2022/10/15 08:03:36;;;;;;;3.08;0.95;;;12.30;99.90;;;;;;5112402;28;20035;-85
2022/10/15 08:06:03;;;;;;;;;;;12.40;99.90;;;;;;5096301;28;20055;-86
2022/10/15 08:08:29;;;;;;;2.27;0.97;;;12.40;99.90;;;;;;5112281;28;19920;-86
2022/10/15 08:10:55;;;;;;;2.15;0.65;;;12.40;99.90;;;;;;5112885;27;20402;-86
2022/10/15 08:13:23;;;;;;;2.13;0.87;;;12.50;99.90;;;;;;5112191;28;20039;-86
2022/10/15 08:15:49;;;;;;;2.05;1.42;;;12.70;99.90;;;;;;5129565;28;20043;-86
2022/10/15 08:18:14;;;;;;;6.23;1.70;;;12.70;99.90;;;;;;5111566;28;20409;-87
2022/10/15 08:20:41;;;;;;;1.67;1.07;;;12.80;99.90;;;;;;5095623;28;20050;-87
2022/10/15 08:23:16;;;;;;;2.15;1.38;;;12.70;99.90;;;;;;5112023;27;20051;-86
2022/10/15 08:25:42;;;;;;;4.40;1.25;;;12.70;99.90;;;;;;5129563;28;20497;-86
2022/10/15 08:28:10;;;;;;;3.10;1.10;;;12.90;99.90;;;;;;5129303;28;20047;-86
2022/10/15 08:30:37;;;;;;;2.40;1.48;;;13.00;99.90;;;;;;5128794;28;20059;-86
2022/10/15 08:33:02;;;;;;;1.15;0.80;;;13.00;99.90;;;;;;5146169;27;20062;-86
2022/10/15 08:35:28;;;;;;;2.13;0.83;;;13.00;99.90;;;;;;5128409;28;20043;-86
2022/10/15 08:37:54;;;;;;;1.83;1.27;;;13.00;99.90;;;;;;5094847;28;20409;-86
2022/10/15 08:40:23;;;;;;;2.23;1.00;;;13.10;99.90;;;;;;5111625;28;20319;-87
2022/10/15 08:42:50;;;;;;;2.13;1.17;;;13.20;99.90;;;;;;5094681;28;20108;-86
2022/10/15 08:45:26;;;;;;;1.20;1.05;;;13.30;99.90;;;;;;5128949;28;20129;-86
2022/10/15 08:48:11;;;;;;;3.05;1.27;;;13.30;99.90;;;;;;5111976;28;20054;-86
2022/10/15 08:51:05;;;;;;;3.03;1.63;;;13.30;99.90;;;;;;5114403;28;20040;-86
2022/10/15 08:53:44;;;;;;;1.08;0.93;;;13.40;99.90;;;;;;5114439;28;20048;-86
2022/10/15 08:56:35;;;;;;;3.35;1.50;;;13.40;99.90;;;;;;5098270;28;20101;-86
2022/10/15 08:59:06;;;;;;;2.08;1.02;;;13.30;99.90;;;;;;5114827;28;20178;-86
2022/10/15 09:01:46;;;;;;;2.25;1.27;;;13.20;99.90;;;;;;5114112;28;20122;-86
2022/10/15 09:04:30;;;;;;;4.20;1.60;;;13.20;99.90;;;;;;5115144;28;20208;-86
2022/10/15 09:07:24;;;;;;;2.60;1.23;;;13.10;99.90;;;;;;5098043;28;20043;-86
2022/10/15 09:10:01;;;;;;;4.60;1.67;;;13.10;99.90;;;;;;5115277;28;20171;-86
2022/10/15 09:12:42;;;;;;;1.75;1.27;;;13.00;99.90;;;;;;5114237;28;20048;-86
2022/10/15 09:15:18;;;;;;;2.90;1.35;;;13.00;99.90;;;;;;5097986;28;20139;-85
2022/10/15 09:17:47;;;;;;;4.50;1.65;;;13.00;99.90;;;;;;5097258;28;20035;-86
2022/10/15 09:20:30;;;;;;;3.63;1.52;;;12.90;99.90;;;;;;5097641;28;20059;-86
2022/10/15 09:22:56;;;;;;;6.53;1.83;;;12.90;99.90;;;;;;5097790;28;20454;-86
2022/10/15 09:25:30;;;;;;;2.33;0.97;;;12.90;99.90;;;;;;5080755;28;20047;-86
2022/10/15 09:28:01;;;;;;;4.18;2.00;;;12.80;99.90;;;;;;5097498;28;20390;-85
2022/10/15 09:30:39;;;;;;;2.92;1.00;;;12.80;99.90;;;;;;5113990;28;20107;-86
2022/10/15 09:33:31;;;;;;;1.92;1.30;;;12.70;99.90;;;;;;5114550;28;20452;-86
2022/10/15 09:36:45;;;;;;;2.50;1.38;;;12.70;99.90;;;;;;5097574;28;20060;-86
2022/10/15 09:39:25;;;;;;;1.90;1.30;;;12.70;99.90;;;;;;5075611;28;20426;-86
2022/10/15 09:41:52;;;;;;;4.00;1.42;;;12.60;99.90;;;;;;5075825;28;20436;-86
2022/10/15 09:44:21;;;;;;;3.92;1.00;;;12.50;99.90;;;;;;5096403;28;20494;-86
2022/10/15 09:46:49;;;;;;;1.90;0.90;;;12.50;99.90;;;;;;5096789;28;20046;-86
2022/10/15 09:49:24;;;;;;;2.75;1.00;;;12.50;99.90;;;;;;5113676;28;20485;-86
2022/10/15 09:51:59;;;;;;;3.83;1.58;;;12.50;99.90;;;;;;5113586;28;20482;-86
2022/10/15 09:54:45;;;;;;;2.35;1.42;;;12.50;99.90;;;;;;5096472;28;20065;-86
2022/10/15 09:57:13;;;;;;;2.53;1.20;;;12.50;99.90;;;;;;5096640;28;20131;-85
2022/10/15 09:59:55;;;;;;;2.80;0.85;;;12.50;99.90;;;;;;5096346;28;20501;-86
2022/10/15 10:02:23;;;;;;;1.10;0.90;;;12.50;99.90;;;;;;5096181;28;20043;-86
2022/10/15 10:04:48;;;;;;;1.42;1.10;;;12.50;99.90;;;;;;5096400;28;20055;-86
2022/10/15 10:07:35;;;;;;;1.60;0.97;;;12.50;99.90;;;;;;5093767;28;20039;-86
2022/10/15 10:10:21;;;;;;;2.83;0.77;;;12.50;99.90;;;;;;5112766;28;20064;-84
2022/10/15 10:12:48;;;;;;;2.67;0.95;;;12.50;99.90;;;;;;5106718;28;20127;-84
2022/10/15 10:15:20;;;;;;;0.57;0.57;;;12.50;99.90;;;;;;5103062;28;20542;-87
2022/10/15 10:17:53;;;;;;;1.98;0.70;;;12.50;99.90;;;;;;5080462;28;20032;-88
2022/10/15 10:20:21;;;;;;;2.85;0.90;;;12.50;99.90;;;;;;5100009;28;20040;-86
2022/10/15 10:22:51;;;;;;;2.40;0.73;;;12.60;99.90;;;;;;5094219;28;20474;-86
2022/10/15 10:25:26;;;;;;;1.50;0.90;;;12.60;99.90;;;;;;5087781;28;20047;-90
2022/10/15 10:28:15;;;;;;;2.35;1.33;;;12.50;99.90;;;;;;5082190;28;20100;-91
2022/10/15 10:30:57;;;;;;;1.27;0.50;;;12.70;99.90;;;;;;5076664;28;20047;-96
2022/10/15 10:33:26;;;;;;;1.40;0.80;;;12.70;99.90;;;;;;5094223;28;20048;-94
2022/10/15 10:35:53;;;;;;;1.30;0.93;;;12.70;99.90;;;;;;5089116;28;20058;-95
2022/10/15 10:38:29;;;;;;;1.60;0.85;;;12.80;99.90;;;;;;5097850;28;20573;-94
2022/10/15 10:41:04;;;;;;;1.50;1.10;;;12.80;99.90;;;;;;5095668;28;20135;-94
2022/10/15 10:43:30;;;;;;;0.55;0.43;;;12.80;99.90;;;;;;5087413;28;20478;-87
2022/10/15 10:46:11;;;;;;;1.02;0.85;;;12.80;99.90;;;;;;5093930;28;20144;-91
2022/10/15 10:48:47;;;;;;;2.80;1.35;;;12.80;99.90;;;;;;5089700;28;20543;-88
2022/10/15 10:51:16;;;;;;;0.68;0.32;;;12.90;99.90;;;;;;5095494;28;20051;-86
2022/10/15 10:54:00;;;;;;;1.83;1.25;;;13.70;99.90;;;;;;5099564;28;20058;-88
2022/10/15 10:56:34;;;;;;;3.50;1.45;;;13.10;99.90;;;;;;5108823;27;20039;-86
2022/10/15 10:59:24;;;;;;;3.72;1.30;;;13.30;99.90;;;;;;5081733;28;20040;-87
2022/10/15 11:01:55;;;;;;;0.80;0.45;;;13.40;99.90;;;;;;5096130;28;20059;-86
2022/10/15 11:04:31;;;;;;;0.88;0.50;;;13.20;99.90;;;;;;5094848;28;20048;-86
2022/10/15 11:07:12;;;;;;;2.60;1.17;;;13.60;99.90;;;;;;5074159;28;20704;-88
2022/10/15 11:10:10;;;;;;;0.90;0.50;;;13.70;99.90;;;;;;5107166;27;20104;-86
2022/10/15 11:12:58;;;;;;;0.60;0.27;;;13.80;99.90;;;;;;5104784;28;20122;-86
2022/10/15 11:15:27;;;;;;;1.23;0.80;;;13.80;99.90;;;;;;5094804;28;20063;-85
2022/10/15 11:18:46;;;;;;;0.52;0.52;;;13.80;99.90;;;;;;5078519;28;20831;-87
2022/10/15 11:21:15;;;;;;;1.00;0.47;;;13.70;99.90;;;;;;5037168;28;20043;-87
2022/10/15 11:24:03;;;;;;;2.10;0.57;;;13.80;99.90;;;;;;5049675;28;20133;-87
2022/10/15 11:26:44;;;;;;;1.85;0.57;;;13.70;99.90;;;;;;5061288;28;20051;-84
2022/10/15 11:29:34;;;;;;;1.00;0.63;;;13.70;99.90;;;;;;5083739;28;20425;-84
2022/10/15 11:32:38;;;;;;;2.17;1.20;;;13.80;99.90;;;;;;5086096;28;20055;-87
2022/10/15 11:35:30;;;;;;;0.82;0.55;;;13.80;99.90;;;;;;5057201;28;20113;-88
2022/10/15 11:38:07;;;;;;;2.10;1.00;;;13.90;99.90;;;;;;5096701;28;20050;-87
2022/10/15 11:41:09;;;;;;;1.95;0.95;;;13.90;99.90;;;;;;5074435;28;20142;-88
2022/10/15 11:44:07;;;;;;;1.00;0.90;;;13.90;99.90;;;;;;5100919;28;20040;-87
2022/10/15 11:47:04;;;;;;;1.55;0.70;;;13.90;99.90;;;;;;5103523;28;20050;-87
2022/10/15 11:49:48;;;;;;;3.00;0.95;;;13.90;99.90;;;;;;5072013;28;20039;-87
2022/10/15 11:52:20;;;;;;;1.25;1.05;;;13.80;99.90;;;;;;5109222;28;20031;-87
2022/10/15 11:55:20;;;;;;;1.55;0.73;;;13.80;99.90;;;;;;5090900;28;20059;-87
2022/10/15 11:57:50;;;;;;;1.58;0.68;;;13.20;99.90;;;;;;5090085;28;20135;-88
2022/10/15 12:00:38;;;;;;;1.58;0.73;;;13.80;99.90;;;;;;5099214;28;20086;-86
2022/10/15 12:03:15;;;;;;;2.72;1.40;;;13.80;99.90;;;;;;5102210;28;20327;-88
2022/10/15 12:05:57;;;;;;;0.98;0.77;;;13.60;99.90;;;;;;5101714;28;20181;-86
2022/10/15 12:08:27;;;;;;;2.17;0.82;;;13.80;99.90;;;;;;5072830;28;20533;-86
2022/10/15 12:11:21;;;;;;;2.92;0.90;;;13.80;99.90;;;;;;5090249;28;20425;-86
2022/10/15 12:13:52;;;;;;;0.80;0.40;;;13.90;99.90;;;;;;5082663;28;20064;-87
2022/10/15 12:16:35;;;;;;;1.45;0.73;;;13.90;99.90;;;;;;5092452;28;20036;-87
2022/10/15 12:19:24;;;;;;;3.60;1.70;;;14.00;99.90;;;;;;5085018;28;20047;-88
2022/10/15 12:21:56;;;;;;;1.65;1.00;;;14.00;99.90;;;;;;5103619;28;20048;-86
2022/10/15 12:24:36;;;;;;;1.33;0.47;;;14.10;99.90;;;;;;5095433;28;20105;-87
2022/10/15 12:27:17;;;;;;;1.75;0.82;;;14.10;99.90;;;;;;5085368;28;20047;-88
2022/10/15 12:29:47;;;;;;;0.68;0.68;;;14.10;99.90;;;;;;5087987;28;20056;-90
2022/10/15 12:32:24;;;;;;;1.25;0.60;;;14.20;99.90;;;;;;5098215;28;20500;-88
2022/10/15 12:35:03;;;;;;;1.20;1.10;;;14.20;99.90;;;;;;5086514;28;20055;-88
2022/10/15 12:37:33;;;;;;;0.65;0.47;;;14.20;99.90;;;;;;5075818;28;20086;-88
2022/10/15 12:40:22;;;;;;;0.50;0.50;;;14.20;99.90;;;;;;5090615;28;20653;-89
2022/10/15 12:43:01;;;;;;;1.17;1.08;;;14.20;99.90;;;;;;5087996;28;20047;-90
2022/10/15 12:45:55;;;;;;;1.30;0.43;;;14.20;99.90;;;;;;5102488;28;20097;-91
2022/10/15 12:48:35;;;;;;;1.45;1.08;;;14.20;99.90;;;;;;5098893;28;20120;-91
2022/10/15 12:51:16;;;;;;;2.28;1.10;;;14.20;99.90;;;;;;5084075;28;20048;-91
2022/10/15 12:53:45;;;;;;;0.85;0.45;;;13.80;99.90;;;;;;5089050;28;20131;-91
2022/10/15 12:56:14;;;;;;;0.90;0.65;;;14.20;99.90;;;;;;5091385;28;20543;-92
2022/10/15 12:58:47;;;;;;;1.58;0.90;;;14.10;99.90;;;;;;5082136;28;20039;-91
2022/10/15 13:01:13;;;;;;;1.73;0.90;;;14.10;99.90;;;;;;5074628;28;20061;-91
2022/10/15 13:03:50;;;;;;;2.07;0.90;;;14.10;99.90;;;;;;5090701;28;20122;-91
2022/10/15 13:06:19;;;;;;;2.72;0.75;;;13.60;99.90;;;;;;5088238;28;20051;-92
2022/10/15 13:09:09;;;;;;;1.30;1.00;;;14.00;99.90;;;;;;5098941;28;20044;-92
2022/10/15 13:11:51;;;;;;;1.60;0.80;;;14.00;99.90;;;;;;5102530;28;20071;-92